sensor_id;sensor_type;location;lat;lon;timestamp;pressure;altitude;pressure_sealevel;temperature;humidity
57827;BME280;43656;57.746;11.780;2023-03-20T00:01:56;100960.16;;;9.70;100.00
57827;BME280;43656;57.746;11.780;2023-03-20T00:04:21;100957.84;;;9.67;100.00
57827;BME280;43656;57.746;11.780;2023-03-20T00:06:47;100941.59;;;9.54;100.00
57827;BME280;43656;57.746;11.780;2023-03-20T00:09:12;100950.94;;;9.58;100.00
57827;BME280;43656;57.746;11.780;2023-03-20T00:11:49;100927.22;;;9.47;100.00
57827;BME280;43656;57.746;11.780;2023-03-20T00:14:17;100958.03;;;9.65;100.00
57827;BME280;43656;57.746;11.780;2023-03-20T00:16:46;100953.84;;;9.63;100.00
57827;BME280;43656;57.746;11.780;2023-03-20T00:19:19;100945.19;;;9.61;100.00
57827;BME280;43656;57.746;11.780;2023-03-20T00:21:47;100915.66;;;9.46;100.00
57827;BME280;43656;57.746;11.780;2023-03-20T00:24:14;100909.19;;;9.40;100.00
57827;BME280;43656;57.746;11.780;2023-03-20T00:26:42;100938.13;;;9.60;100.00
57827;BME280;43656;57.746;11.780;2023-03-20T00:29:24;100937.13;;;9.61;100.00
57827;BME280;43656;57.746;11.780;2023-03-20T00:31:51;100927.75;;;9.57;100.00
57827;BME280;43656;57.746;11.780;2023-03-20T00:34:18;100923.22;;;9.57;100.00
57827;BME280;43656;57.746;11.780;2023-03-20T00:36:46;100922.38;;;9.57;100.00
57827;BME280;43656;57.746;11.780;2023-03-20T00:39:12;100924.06;;;9.58;100.00
57827;BME280;43656;57.746;11.780;2023-03-20T00:47:05;100914.88;;;9.67;100.00
57827;BME280;43656;57.746;11.780;2023-03-20T00:49:36;100919.97;;;9.62;100.00
57827;BME280;43656;57.746;11.780;2023-03-20T00:52:05;100901.28;;;9.54;100.00
57827;BME280;43656;57.746;11.780;2023-03-20T00:54:31;100908.78;;;9.58;100.00
57827;BME280;43656;57.746;11.780;2023-03-20T00:57:08;100902.56;;;9.58;100.00
57827;BME280;43656;57.746;11.780;2023-03-20T00:59:40;100909.59;;;9.59;100.00
57827;BME280;43656;57.746;11.780;2023-03-20T01:02:06;100903.41;;;9.58;100.00
57827;BME280;43656;57.746;11.780;2023-03-20T01:04:40;100908.84;;;9.65;100.00
57827;BME280;43656;57.746;11.780;2023-03-20T01:07:09;100905.13;;;9.66;100.00
57827;BME280;43656;57.746;11.780;2023-03-20T01:09:36;100898.47;;;9.62;100.00
57827;BME280;43656;57.746;11.780;2023-03-20T01:12:02;100896.69;;;9.69;100.00
57827;BME280;43656;57.746;11.780;2023-03-20T01:14:29;100891.91;;;9.64;100.00
57827;BME280;43656;57.746;11.780;2023-03-20T01:16:54;100895.69;;;9.70;100.00
57827;BME280;43656;57.746;11.780;2023-03-20T01:19:20;100881.22;;;9.71;100.00
57827;BME280;43656;57.746;11.780;2023-03-20T01:21:45;100856.44;;;9.54;100.00
57827;BME280;43656;57.746;11.780;2023-03-20T01:24:11;100884.53;;;9.73;100.00
57827;BME280;43656;57.746;11.780;2023-03-20T01:26:39;100879.16;;;9.73;100.00
57827;BME280;43656;57.746;11.780;2023-03-20T01:29:20;100880.00;;;9.74;100.00
57827;BME280;43656;57.746;11.780;2023-03-20T01:31:46;100877.94;;;9.76;100.00
57827;BME280;43656;57.746;11.780;2023-03-20T01:34:12;100870.47;;;9.71;100.00
57827;BME280;43656;57.746;11.780;2023-03-20T01:36:42;100872.94;;;9.73;100.00
57827;BME280;43656;57.746;11.780;2023-03-20T01:39:09;100870.47;;;9.71;100.00
57827;BME280;43656;57.746;11.780;2023-03-20T01:41:35;100865.25;;;9.70;100.00
57827;BME280;43656;57.746;11.780;2023-03-20T01:44:17;100863.88;;;9.74;100.00
57827;BME280;43656;57.746;11.780;2023-03-20T01:46:43;100863.47;;;9.55;100.00
57827;BME280;43656;57.746;11.780;2023-03-20T01:51:43;100856.38;;;9.69;100.00
57827;BME280;43656;57.746;11.780;2023-03-20T01:54:28;100856.25;;;9.77;100.00
57827;BME280;43656;57.746;11.780;2023-03-20T01:59:41;100856.66;;;9.74;100.00
57827;BME280;43656;57.746;11.780;2023-03-20T02:02:08;100850.25;;;9.75;100.00
57827;BME280;43656;57.746;11.780;2023-03-20T02:04:40;100847.31;;;9.70;100.00
57827;BME280;43656;57.746;11.780;2023-03-20T02:07:09;100827.59;;;9.63;100.00
57827;BME280;43656;57.746;11.780;2023-03-20T02:09:35;100835.59;;;9.78;100.00
57827;BME280;43656;57.746;11.780;2023-03-20T02:12:01;100838.06;;;9.79;100.00
57827;BME280;43656;57.746;11.780;2023-03-20T02:14:28;100823.63;;;9.80;100.00
57827;BME280;43656;57.746;11.780;2023-03-20T02:16:53;100839.50;;;9.97;100.00
57827;BME280;43656;57.746;11.780;2023-03-20T02:27:55;100825.53;;;9.86;100.00
57827;BME280;43656;57.746;11.780;2023-03-20T02:44:13;100806.44;;;10.03;100.00
57827;BME280;43656;57.746;11.780;2023-03-20T02:46:55;100821.25;;;10.20;100.00
57827;BME280;43656;57.746;11.780;2023-03-20T03:08:19;100799.84;;;10.33;100.00
57827;BME280;43656;57.746;11.780;2023-03-20T03:10:59;100792.63;;;10.34;100.00
57827;BME280;43656;57.746;11.780;2023-03-20T03:13:29;100782.69;;;10.34;100.00
57827;BME280;43656;57.746;11.780;2023-03-20T03:16:00;100778.34;;;10.33;100.00
57827;BME280;43656;57.746;11.780;2023-03-20T03:18:29;100773.75;;;10.27;100.00
57827;BME280;43656;57.746;11.780;2023-03-20T03:20:58;100773.75;;;10.27;100.00
57827;BME280;43656;57.746;11.780;2023-03-20T03:23:29;100776.22;;;10.29;100.00
57827;BME280;43656;57.746;11.780;2023-03-20T03:25:57;100775.75;;;10.25;100.00
57827;BME280;43656;57.746;11.780;2023-03-20T03:28:35;100763.19;;;10.26;100.00
57827;BME280;43656;57.746;11.780;2023-03-20T03:31:10;100772.06;;;10.26;100.00
57827;BME280;43656;57.746;11.780;2023-03-20T03:33:38;100758.38;;;10.21;100.00
57827;BME280;43656;57.746;11.780;2023-03-20T03:36:10;100775.72;;;10.19;100.00
57827;BME280;43656;57.746;11.780;2023-03-20T03:41:38;100778.22;;;10.20;100.00
57827;BME280;43656;57.746;11.780;2023-03-20T03:44:11;100780.03;;;10.13;100.00
57827;BME280;43656;57.746;11.780;2023-03-20T03:46:52;100773.00;;;10.12;100.00
57827;BME280;43656;57.746;11.780;2023-03-20T03:49:29;100757.84;;;10.04;100.00
57827;BME280;43656;57.746;11.780;2023-03-20T03:52:00;100768.25;;;10.14;100.00
57827;BME280;43656;57.746;11.780;2023-03-20T03:54:49;100772.59;;;10.15;100.00
57827;BME280;43656;57.746;11.780;2023-03-20T03:57:21;100746.03;;;9.99;100.00
57827;BME280;43656;57.746;11.780;2023-03-20T03:59:50;100738.38;;;10.02;100.00
57827;BME280;43656;57.746;11.780;2023-03-20T04:02:17;100757.91;;;10.11;100.00
57827;BME280;43656;57.746;11.780;2023-03-20T04:04:47;100769.53;;;10.18;100.00
57827;BME280;43656;57.746;11.780;2023-03-20T04:07:15;100769.25;;;10.13;100.00
57827;BME280;43656;57.746;11.780;2023-03-20T04:09:40;100741.69;;;9.98;100.00
57827;BME280;43656;57.746;11.780;2023-03-20T04:12:32;100763.84;;;10.06;100.00
57827;BME280;43656;57.746;11.780;2023-03-20T04:14:59;100753.31;;;10.05;100.00
57827;BME280;43656;57.746;11.780;2023-03-20T04:17:25;100749.19;;;10.09;100.00
57827;BME280;43656;57.746;11.780;2023-03-20T04:19:51;100749.19;;;10.09;100.00
57827;BME280;43656;57.746;11.780;2023-03-20T04:22:16;100748.19;;;10.10;100.00
57827;BME280;43656;57.746;11.780;2023-03-20T04:24:41;100748.78;;;10.12;100.00
57827;BME280;43656;57.746;11.780;2023-03-20T04:27:07;100760.53;;;10.04;100.00
57827;BME280;43656;57.746;11.780;2023-03-20T04:29:32;100762.78;;;10.01;100.00
57827;BME280;43656;57.746;11.780;2023-03-20T04:31:58;100756.59;;;10.00;100.00
57827;BME280;43656;57.746;11.780;2023-03-20T04:34:24;100747.94;;;10.05;100.00
57827;BME280;43656;57.746;11.780;2023-03-20T04:36:49;100730.00;;;9.84;100.00
57827;BME280;43656;57.746;11.780;2023-03-20T04:39:15;100753.91;;;10.00;100.00
57827;BME280;43656;57.746;11.780;2023-03-20T04:41:40;100743.75;;;10.02;100.00
57827;BME280;43656;57.746;11.780;2023-03-20T04:44:06;100750.78;;;9.97;100.00
57827;BME280;43656;57.746;11.780;2023-03-20T04:46:31;100725.69;;;9.89;100.00
57827;BME280;43656;57.746;11.780;2023-03-20T04:48:57;100742.28;;;10.00;100.00
57827;BME280;43656;57.746;11.780;2023-03-20T04:51:22;100748.47;;;9.94;100.00
57827;BME280;43656;57.746;11.780;2023-03-20T04:53:48;100739.19;;;9.96;100.00
57827;BME280;43656;57.746;11.780;2023-03-20T04:56:13;100741.88;;;9.96;100.00
57827;BME280;43656;57.746;11.780;2023-03-20T04:58:38;100754.03;;;9.92;100.00
57827;BME280;43656;57.746;11.780;2023-03-20T05:01:04;100745.94;;;9.85;100.00
57827;BME280;43656;57.746;11.780;2023-03-20T05:03:30;100745.75;;;9.87;100.00
57827;BME280;43656;57.746;11.780;2023-03-20T05:05:55;100743.94;;;9.94;100.00
57827;BME280;43656;57.746;11.780;2023-03-20T05:08:21;100743.88;;;9.87;100.00
57827;BME280;43656;57.746;11.780;2023-03-20T05:10:46;100741.34;;;9.79;100.00
57827;BME280;43656;57.746;11.780;2023-03-20T05:13:12;100739.28;;;9.81;100.00
57827;BME280;43656;57.746;11.780;2023-03-20T05:15:37;100728.09;;;9.78;100.00
57827;BME280;43656;57.746;11.780;2023-03-20T05:18:03;100730.59;;;9.79;100.00
57827;BME280;43656;57.746;11.780;2023-03-20T05:20:28;100724.22;;;9.80;100.00
57827;BME280;43656;57.746;11.780;2023-03-20T05:22:54;100709.63;;;9.68;100.00
57827;BME280;43656;57.746;11.780;2023-03-20T05:25:19;100723.13;;;9.75;100.00
57827;BME280;43656;57.746;11.780;2023-03-20T05:27:45;100729.31;;;9.75;100.00
57827;BME280;43656;57.746;11.780;2023-03-20T05:30:12;100727.91;;;9.79;100.00
57827;BME280;43656;57.746;11.780;2023-03-20T05:32:38;100721.13;;;9.83;100.00
57827;BME280;43656;57.746;11.780;2023-03-20T05:35:05;100725.38;;;9.71;100.00
57827;BME280;43656;57.746;11.780;2023-03-20T05:37:31;100733.91;;;9.81;100.00
57827;BME280;43656;57.746;11.780;2023-03-20T05:39:56;100725.41;;;9.78;100.00
57827;BME280;43656;57.746;11.780;2023-03-20T05:42:22;100729.16;;;9.77;100.00
57827;BME280;43656;57.746;11.780;2023-03-20T05:44:47;100727.22;;;9.71;100.00
57827;BME280;43656;57.746;11.780;2023-03-20T05:47:12;100730.75;;;9.71;100.00
57827;BME280;43656;57.746;11.780;2023-03-20T05:49:38;100648.28;;;9.15;100.00
57827;BME280;43656;57.746;11.780;2023-03-20T05:52:03;100721.16;;;9.62;100.00
57827;BME280;43656;57.746;11.780;2023-03-20T05:54:29;100728.41;;;9.61;100.00
57827;BME280;43656;57.746;11.780;2023-03-20T05:56:54;100736.69;;;9.67;100.00
57827;BME280;43656;57.746;11.780;2023-03-20T05:59:20;100731.53;;;9.65;100.00
57827;BME280;43656;57.746;11.780;2023-03-20T06:01:45;100735.09;;;9.72;100.00
57827;BME280;43656;57.746;11.780;2023-03-20T06:04:11;100727.69;;;9.53;100.00
57827;BME280;43656;57.746;11.780;2023-03-20T06:06:36;100738.31;;;9.61;100.00
57827;BME280;43656;57.746;11.780;2023-03-20T06:09:03;100723.16;;;9.53;100.00
57827;BME280;43656;57.746;11.780;2023-03-20T06:11:28;100742.91;;;9.67;100.00
57827;BME280;43656;57.746;11.780;2023-03-20T06:13:54;100748.13;;;9.75;100.00
57827;BME280;43656;57.746;11.780;2023-03-20T06:16:22;100731.31;;;9.67;100.00
57827;BME280;43656;57.746;11.780;2023-03-20T06:18:47;100729.03;;;9.63;100.00
57827;BME280;43656;57.746;11.780;2023-03-20T06:21:13;100746.09;;;9.77;100.00
57827;BME280;43656;57.746;11.780;2023-03-20T06:23:39;100725.84;;;9.53;100.00
57827;BME280;43656;57.746;11.780;2023-03-20T06:26:04;100748.53;;;9.72;100.00
57827;BME280;43656;57.746;11.780;2023-03-20T06:28:30;100749.22;;;9.81;100.00
57827;BME280;43656;57.746;11.780;2023-03-20T06:30:56;100746.03;;;9.71;100.00
57827;BME280;43656;57.746;11.780;2023-03-20T06:33:22;100743.78;;;9.74;100.00
57827;BME280;43656;57.746;11.780;2023-03-20T06:35:47;100713.44;;;9.52;100.00
57827;BME280;43656;57.746;11.780;2023-03-20T06:38:13;100740.47;;;9.72;100.00
57827;BME280;43656;57.746;11.780;2023-03-20T06:40:39;100738.16;;;9.69;100.00
57827;BME280;43656;57.746;11.780;2023-03-20T06:43:05;100739.84;;;9.70;100.00
57827;BME280;43656;57.746;11.780;2023-03-20T06:45:31;100735.63;;;9.61;100.00
57827;BME280;43656;57.746;11.780;2023-03-20T06:47:56;100745.22;;;9.70;100.00
57827;BME280;43656;57.746;11.780;2023-03-20T06:50:22;100737.78;;;9.72;100.00
57827;BME280;43656;57.746;11.780;2023-03-20T06:52:47;100732.44;;;9.79;100.00
57827;BME280;43656;57.746;11.780;2023-03-20T06:55:13;100736.16;;;9.78;100.00
57827;BME280;43656;57.746;11.780;2023-03-20T06:57:38;100729.97;;;9.77;100.00
57827;BME280;43656;57.746;11.780;2023-03-20T07:00:05;100726.41;;;9.70;100.00
57827;BME280;43656;57.746;11.780;2023-03-20T07:02:32;100726.84;;;9.74;100.00
57827;BME280;43656;57.746;11.780;2023-03-20T07:04:57;100719.59;;;9.74;100.00
57827;BME280;43656;57.746;11.780;2023-03-20T07:07:22;100720.47;;;9.81;100.00
57827;BME280;43656;57.746;11.780;2023-03-20T07:09:48;100727.56;;;9.89;100.00
57827;BME280;43656;57.746;11.780;2023-03-20T07:12:15;100735.88;;;9.94;100.00
57827;BME280;43656;57.746;11.780;2023-03-20T07:14:44;100730.97;;;10.04;100.00
57827;BME280;43656;57.746;11.780;2023-03-20T07:17:10;100729.56;;;10.15;100.00
57827;BME280;43656;57.746;11.780;2023-03-20T07:19:36;100732.13;;;10.23;100.00
57827;BME280;43656;57.746;11.780;2023-03-20T07:22:04;100737.91;;;10.20;100.00
57827;BME280;43656;57.746;11.780;2023-03-20T07:24:30;100720.91;;;10.20;100.00
57827;BME280;43656;57.746;11.780;2023-03-20T07:26:56;100730.44;;;10.22;100.00
57827;BME280;43656;57.746;11.780;2023-03-20T07:29:22;100715.59;;;10.26;100.00
57827;BME280;43656;57.746;11.780;2023-03-20T07:31:47;100733.47;;;10.41;100.00
57827;BME280;43656;57.746;11.780;2023-03-20T07:34:13;100732.41;;;10.35;100.00
57827;BME280;43656;57.746;11.780;2023-03-20T07:36:38;100734.69;;;10.38;100.00
57827;BME280;43656;57.746;11.780;2023-03-20T07:39:06;100733.47;;;10.41;100.00
57827;BME280;43656;57.746;11.780;2023-03-20T07:41:32;100740.72;;;10.40;100.00
57827;BME280;43656;57.746;11.780;2023-03-20T07:43:57;100741.13;;;10.37;100.00
57827;BME280;43656;57.746;11.780;2023-03-20T07:46:23;100731.47;;;10.21;100.00
57827;BME280;43656;57.746;11.780;2023-03-20T07:48:49;100742.34;;;10.34;100.00
57827;BME280;43656;57.746;11.780;2023-03-20T07:51:15;100746.16;;;10.19;100.00
57827;BME280;43656;57.746;11.780;2023-03-20T07:53:40;100751.31;;;10.14;100.00
57827;BME280;43656;57.746;11.780;2023-03-20T07:56:06;100755.00;;;10.12;100.00
57827;BME280;43656;57.746;11.780;2023-03-20T07:58:32;100757.66;;;10.06;100.00
57827;BME280;43656;57.746;11.780;2023-03-20T08:00:57;100761.63;;;10.10;100.00
57827;BME280;43656;57.746;11.780;2023-03-20T08:03:23;100763.75;;;9.93;100.00
57827;BME280;43656;57.746;11.780;2023-03-20T08:05:49;100764.31;;;9.82;100.00
57827;BME280;43656;57.746;11.780;2023-03-20T08:08:15;100729.88;;;9.64;100.00
57827;BME280;43656;57.746;11.780;2023-03-20T08:10:40;100771.59;;;9.88;100.00
57827;BME280;43656;57.746;11.780;2023-03-20T08:13:05;100772.91;;;9.99;100.00
57827;BME280;43656;57.746;11.780;2023-03-20T08:15:31;100777.09;;;10.08;100.00
57827;BME280;43656;57.746;11.780;2023-03-20T08:17:56;100775.13;;;10.17;100.00
57827;BME280;43656;57.746;11.780;2023-03-20T08:20:23;100783.72;;;10.33;100.00
57827;BME280;43656;57.746;11.780;2023-03-20T08:22:48;100776.91;;;10.38;100.00
57827;BME280;43656;57.746;11.780;2023-03-20T08:25:15;100756.22;;;10.38;100.00
57827;BME280;43656;57.746;11.780;2023-03-20T08:27:40;100776.16;;;10.50;100.00
57827;BME280;43656;57.746;11.780;2023-03-20T08:30:08;100780.84;;;10.42;100.00
57827;BME280;43656;57.746;11.780;2023-03-20T08:32:33;100771.28;;;10.32;100.00
57827;BME280;43656;57.746;11.780;2023-03-20T08:35:00;100784.72;;;10.32;100.00
57827;BME280;43656;57.746;11.780;2023-03-20T08:37:26;100782.25;;;10.31;100.00
57827;BME280;43656;57.746;11.780;2023-03-20T08:39:52;100781.31;;;10.17;100.00
57827;BME280;43656;57.746;11.780;2023-03-20T08:42:17;100784.81;;;10.18;100.00
57827;BME280;43656;57.746;11.780;2023-03-20T08:44:43;100776.50;;;10.12;100.00
57827;BME280;43656;57.746;11.780;2023-03-20T08:47:09;100782.22;;;10.03;100.00
57827;BME280;43656;57.746;11.780;2023-03-20T08:49:36;100782.28;;;10.09;100.00
57827;BME280;43656;57.746;11.780;2023-03-20T08:52:02;100788.00;;;10.00;100.00
57827;BME280;43656;57.746;11.780;2023-03-20T08:54:28;100790.16;;;10.11;100.00
57827;BME280;43656;57.746;11.780;2023-03-20T08:56:54;100761.53;;;9.97;100.00
57827;BME280;43656;57.746;11.780;2023-03-20T08:59:19;100790.59;;;10.15;100.00
57827;BME280;43656;57.746;11.780;2023-03-20T09:01:45;100781.16;;;10.25;100.00
57827;BME280;43656;57.746;11.780;2023-03-20T09:04:12;100785.19;;;10.08;100.00
57827;BME280;43656;57.746;11.780;2023-03-20T09:06:38;100792.19;;;10.09;100.00
57827;BME280;43656;57.746;11.780;2023-03-20T09:09:03;100786.16;;;10.28;100.00
57827;BME280;43656;57.746;11.780;2023-03-20T09:11:29;100782.69;;;10.34;100.00
57827;BME280;43656;57.746;11.780;2023-03-20T09:13:55;100783.50;;;10.35;100.00
57827;BME280;43656;57.746;11.780;2023-03-20T09:16:20;100760.47;;;10.26;100.00
57827;BME280;43656;57.746;11.780;2023-03-20T09:18:45;100786.19;;;10.35;100.00
57827;BME280;43656;57.746;11.780;2023-03-20T09:21:11;100792.00;;;10.39;100.00
57827;BME280;43656;57.746;11.780;2023-03-20T09:23:36;100791.78;;;10.33;100.00
57827;BME280;43656;57.746;11.780;2023-03-20T09:26:02;100790.94;;;10.33;100.00
57827;BME280;43656;57.746;11.780;2023-03-20T09:28:27;100799.84;;;10.33;100.00
57827;BME280;43656;57.746;11.780;2023-03-20T09:30:57;100791.41;;;10.37;100.00
57827;BME280;43656;57.746;11.780;2023-03-20T09:33:23;100795.34;;;10.41;100.00
57827;BME280;43656;57.746;11.780;2023-03-20T09:35:49;100793.31;;;10.49;100.00
57827;BME280;43656;57.746;11.780;2023-03-20T09:38:15;100794.16;;;10.50;100.00
57827;BME280;43656;57.746;11.780;2023-03-20T09:40:56;100777.91;;;10.30;100.00
57827;BME280;43656;57.746;11.780;2023-03-20T09:43:25;100783.63;;;10.55;100.00
57827;BME280;43656;57.746;11.780;2023-03-20T09:46:13;100786.69;;;10.52;100.00
57827;BME280;43656;57.746;11.780;2023-03-20T09:51:39;100787.63;;;10.72;99.11
57827;BME280;43656;57.746;11.780;2023-03-20T09:54:29;100784.34;;;10.77;99.27
57827;BME280;43656;57.746;11.780;2023-03-20T09:56:56;100784.78;;;10.80;99.23
57827;BME280;43656;57.746;11.780;2023-03-20T09:59:24;100781.03;;;10.81;99.79
57827;BME280;43656;57.746;11.780;2023-03-20T10:01:56;100786.03;;;10.85;99.66
57827;BME280;43656;57.746;11.780;2023-03-20T10:04:25;100780.25;;;10.94;98.77
57827;BME280;43656;57.746;11.780;2023-03-20T10:06:53;100782.13;;;10.94;98.92
57827;BME280;43656;57.746;11.780;2023-03-20T10:09:24;100777.34;;;10.96;98.84
57827;BME280;43656;57.746;11.780;2023-03-20T10:17:16;100786.63;;;10.73;98.70
57827;BME280;43656;57.746;11.780;2023-03-20T10:19:51;100791.59;;;10.76;98.68
57827;BME280;43656;57.746;11.780;2023-03-20T10:22:24;100789.88;;;10.69;98.61
57827;BME280;43656;57.746;11.780;2023-03-20T10:25:07;100803.88;;;10.99;97.29
57827;BME280;43656;57.746;11.780;2023-03-20T10:28:00;100800.63;;;11.10;96.38
57827;BME280;43656;57.746;11.780;2023-03-20T10:30:45;100794.78;;;11.00;96.60
57827;BME280;43656;57.746;11.780;2023-03-20T10:41:02;100799.59;;;11.24;95.14
57827;BME280;43656;57.746;11.780;2023-03-20T10:43:33;100782.63;;;11.24;95.31
57827;BME280;43656;57.746;11.780;2023-03-20T10:46:07;100797.59;;;11.46;94.75
57827;BME280;43656;57.746;11.780;2023-03-20T10:51:29;100795.28;;;11.37;93.93
57827;BME280;43656;57.746;11.780;2023-03-20T10:54:02;100790.72;;;11.31;94.13
57827;BME280;43656;57.746;11.780;2023-03-20T10:56:40;100783.06;;;11.47;93.31
57827;BME280;43656;57.746;11.780;2023-03-20T10:59:11;100767.13;;;11.33;93.09
57827;BME280;43656;57.746;11.780;2023-03-20T11:01:40;100788.28;;;11.56;92.65
57827;BME280;43656;57.746;11.780;2023-03-20T11:04:05;100776.63;;;11.42;92.45
57827;BME280;43656;57.746;11.780;2023-03-20T11:06:37;100784.09;;;11.26;90.87
57827;BME280;43656;57.746;11.780;2023-03-20T11:09:17;100746.50;;;10.98;90.04
57827;BME280;43656;57.746;11.780;2023-03-20T11:11:45;100755.22;;;11.00;90.50
57827;BME280;43656;57.746;11.780;2023-03-20T11:14:19;100790.13;;;10.74;90.03
57827;BME280;43656;57.746;11.780;2023-03-20T11:16:53;100785.53;;;10.68;90.96
57827;BME280;43656;57.746;11.780;2023-03-20T11:19:21;100788.31;;;10.88;90.23
57827;BME280;43656;57.746;11.780;2023-03-20T11:21:52;100786.25;;;10.90;90.45
57827;BME280;43656;57.746;11.780;2023-03-20T11:27:12;100776.47;;;10.75;90.40
57827;BME280;43656;57.746;11.780;2023-03-20T11:29:40;100787.06;;;10.84;90.09
57827;BME280;43656;57.746;11.780;2023-03-20T11:32:33;100788.25;;;10.68;90.05
57827;BME280;43656;57.746;11.780;2023-03-20T11:35:29;100788.88;;;10.70;90.09
57827;BME280;43656;57.746;11.780;2023-03-20T11:38:19;100787.03;;;10.77;89.95
57827;BME280;43656;57.746;11.780;2023-03-20T11:40:46;100788.50;;;10.79;89.08
57827;BME280;43656;57.746;11.780;2023-03-20T11:43:24;100784.69;;;10.61;90.20
57827;BME280;43656;57.746;11.780;2023-03-20T11:45:59;100773.25;;;10.52;89.73
57827;BME280;43656;57.746;11.780;2023-03-20T11:48:45;100789.00;;;10.55;90.10
57827;BME280;43656;57.746;11.780;2023-03-20T11:51:15;100786.47;;;10.95;89.17
57827;BME280;43656;57.746;11.780;2023-03-20T11:56:19;100761.19;;;10.89;89.36
57827;BME280;43656;57.746;11.780;2023-03-20T11:59:00;100776.94;;;10.92;89.50
57827;BME280;43656;57.746;11.780;2023-03-20T12:01:28;100769.94;;;11.04;89.18
57827;BME280;43656;57.746;11.780;2023-03-20T12:04:04;100748.94;;;10.73;89.46
57827;BME280;43656;57.746;11.780;2023-03-20T12:06:52;100763.28;;;10.94;88.62
57827;BME280;43656;57.746;11.780;2023-03-20T12:15:16;100768.25;;;10.90;88.47
57827;BME280;43656;57.746;11.780;2023-03-20T12:17:46;100772.38;;;10.86;88.07
57827;BME280;43656;57.746;11.780;2023-03-20T12:20:24;100775.09;;;10.93;88.46
57827;BME280;43656;57.746;11.780;2023-03-20T12:23:19;100776.31;;;10.84;87.74
57827;BME280;43656;57.746;11.780;2023-03-20T12:26:11;100783.19;;;10.99;87.69
57827;BME280;43656;57.746;11.780;2023-03-20T12:28:59;100783.13;;;10.79;87.81
57827;BME280;43656;57.746;11.780;2023-03-20T12:31:48;100774.00;;;10.80;87.91
57827;BME280;43656;57.746;11.780;2023-03-20T12:34:39;100776.31;;;10.90;87.32
57827;BME280;43656;57.746;11.780;2023-03-20T12:37:10;100786.34;;;11.16;87.12
57827;BME280;43656;57.746;11.780;2023-03-20T12:39:41;100773.66;;;11.03;86.80
57827;BME280;43656;57.746;11.780;2023-03-20T12:45:13;100772.00;;;11.09;87.04
57827;BME280;43656;57.746;11.780;2023-03-20T12:50:38;100778.84;;;11.05;86.37
57827;BME280;43656;57.746;11.780;2023-03-20T13:01:28;100789.88;;;11.17;86.22
57827;BME280;43656;57.746;11.780;2023-03-20T13:06:52;100779.06;;;11.10;85.06
57827;BME280;43656;57.746;11.780;2023-03-20T13:12:24;100789.63;;;11.05;84.68
57827;BME280;43656;57.746;11.780;2023-03-20T13:17:41;100784.75;;;10.74;85.88
57827;BME280;43656;57.746;11.780;2023-03-20T13:20:25;100782.00;;;10.61;85.19
57827;BME280;43656;57.746;11.780;2023-03-20T13:23:08;100772.22;;;10.46;86.13
57827;BME280;43656;57.746;11.780;2023-03-20T13:39:42;100777.31;;;10.82;83.80
57827;BME280;43656;57.746;11.780;2023-03-20T13:42:16;100773.94;;;10.67;85.17
57827;BME280;43656;57.746;11.780;2023-03-20T13:44:44;100781.28;;;10.45;86.05
57827;BME280;43656;57.746;11.780;2023-03-20T13:47:11;100769.47;;;10.40;85.20
57827;BME280;43656;57.746;11.780;2023-03-20T13:52:48;100777.44;;;10.26;85.54
57827;BME280;43656;57.746;11.780;2023-03-20T14:01:06;100774.03;;;10.11;85.78
57827;BME280;43656;57.746;11.780;2023-03-20T14:03:36;100777.38;;;10.20;85.79
57827;BME280;43656;57.746;11.780;2023-03-20T14:09:24;100778.44;;;10.25;85.65
57827;BME280;43656;57.746;11.780;2023-03-20T14:11:52;100778.66;;;10.24;85.42
57827;BME280;43656;57.746;11.780;2023-03-20T14:14:25;100773.41;;;10.37;85.32
57827;BME280;43656;57.746;11.780;2023-03-20T14:17:24;100773.47;;;10.50;85.19
57827;BME280;43656;57.746;11.780;2023-03-20T14:19:49;100763.31;;;10.52;84.56
57827;BME280;43656;57.746;11.780;2023-03-20T14:22:26;100782.75;;;10.20;85.74
57827;BME280;43656;57.746;11.780;2023-03-20T14:27:20;100782.50;;;10.43;84.75
57827;BME280;43656;57.746;11.780;2023-03-20T14:29:46;100762.72;;;10.22;85.32
57827;BME280;43656;57.746;11.780;2023-03-20T14:34:58;100785.13;;;10.29;84.99
57827;BME280;43656;57.746;11.780;2023-03-20T14:37:55;100781.78;;;9.99;85.87
57827;BME280;43656;57.746;11.780;2023-03-20T14:40:28;100780.19;;;10.05;86.23
57827;BME280;43656;57.746;11.780;2023-03-20T14:45:52;100781.94;;;10.19;85.62
57827;BME280;43656;57.746;11.780;2023-03-20T14:48:29;100787.72;;;9.88;86.84
57827;BME280;43656;57.746;11.780;2023-03-20T14:53:57;100788.00;;;10.00;86.52
57827;BME280;43656;57.746;11.780;2023-03-20T14:56:42;100793.31;;;9.93;87.33
57827;BME280;43656;57.746;11.780;2023-03-20T14:59:10;100795.44;;;9.98;87.05
57827;BME280;43656;57.746;11.780;2023-03-20T15:04:05;100800.47;;;10.07;87.04
57827;BME280;43656;57.746;11.780;2023-03-20T15:06:32;100807.56;;;10.15;87.18
57827;BME280;43656;57.746;11.780;2023-03-20T15:09:04;100810.09;;;9.95;88.17
57827;BME280;43656;57.746;11.780;2023-03-20T15:11:32;100814.72;;;9.80;89.20
57827;BME280;43656;57.746;11.780;2023-03-20T15:13:59;100792.66;;;9.84;88.38
57827;BME280;43656;57.746;11.780;2023-03-20T15:16:32;100819.97;;;9.88;88.32
57827;BME280;43656;57.746;11.780;2023-03-20T15:18:59;100820.16;;;9.86;88.74